CheckWX is a tool to help pilots better visualize weather data.  It is not intended as a substitute for an official pre-flight weather briefing.

05:23:00 UTC

CYWK METAR
Wabush Airport
Wabush, Canada
Current

23 mins ago

CYWK 200500Z AUTO 29014G19KT 8SM FEW026 BKN120 M29/M34 A2989 RMK SLP196
Observed
Feb-20 @ 05:00 UTC
Wind
  • 290° at 14 KTS
  • Gusting to 19 KTS
Visibility
12,875 meters
Flight Rules
VFR
Cloud Levels
  • Few at 2,600' AGL
  • Broken at 12,000' AGL
Temperature
-29°C / -20°F
Dewpoint
-34°C / -29°F
Humidity
62%
Altimeter
29.89" Hg
Pressure
1019.6 hPa
Previous

1 hour ago

CYWK 200400Z AUTO 29013G20KT 9SM SCT020 OVC130 M29/M34 A2987 RMK SLP191
Observed
Feb-20 @ 04:00 UTC
Wind
  • 290° at 13 KTS
  • Gusting to 20 KTS
Visibility
14,484 meters
Flight Rules
VFR
Cloud Levels
  • Scattered at 2,000' AGL
  • Overcast at 13,000' AGL
Temperature
-29°C / -20°F
Dewpoint
-34°C / -29°F
Humidity
62%
Altimeter
29.87" Hg
Pressure
1019.1 hPa
Previous

1 hour ago

CYWK 200354Z AUTO 29014G20KT 9SM BKN020 OVC130 M29/M34 A2987 RMK SLP190
Observed
Feb-20 @ 03:54 UTC
Wind
  • 290° at 14 KTS
  • Gusting to 20 KTS
Visibility
14,484 meters
Flight Rules
MVFR
Cloud Levels
  • Broken at 2,000' AGL
  • Overcast at 13,000' AGL
Temperature
-29°C / -20°F
Dewpoint
-34°C / -29°F
Humidity
62%
Altimeter
29.87" Hg
Pressure
1019 hPa